Time;durP1;ratioP1;P1;durP2;ratioP2;P2;SDS_P1;SDS_P2;PMS_P1;PMS_P2;Temp;Humidity;BMP_temperature;BMP_pressure;BME280_temperature;BME280_humidity;BME280_pressure;Samples;Min_cycle;Max_cycle;Signal;HPM_P1;HPM_P2
2023/01/29 00:01:33;;;;;;;;;;;4.70;99.90;;;;;;5095141;28;19912;-70
2023/01/29 00:03:59;;;;;;;;;;;4.70;99.90;;;;;;5089742;28;20299;-70
2023/01/29 00:06:24;;;;;;;;;;;4.70;99.90;;;;;;5079067;28;19916;-70
2023/01/29 00:08:50;;;;;;;;;;;4.70;99.90;;;;;;5099860;28;20426;-68
2023/01/29 00:11:16;;;;;;;;;;;4.70;99.90;;;;;;5089853;28;19919;-64
2023/01/29 00:13:42;;;;;;;;;;;4.70;99.90;;;;;;5066765;28;19922;-69
2023/01/29 00:16:08;;;;;;;;;;;4.60;99.90;;;;;;5092248;28;19974;-68
2023/01/29 00:18:38;;;;;;;;;;;4.60;99.90;;;;;;5094076;28;19916;-70
2023/01/29 00:21:07;;;;;;;;;;;4.60;99.90;;;;;;5083942;28;20004;-69
2023/01/29 00:23:33;;;;;;;;;;;4.60;99.90;;;;;;5103454;28;19919;-69
2023/01/29 00:25:59;;;;;;;;;;;4.60;99.90;;;;;;5095130;28;20260;-68
2023/01/29 00:28:24;;;;;;;;;;;4.70;99.90;;;;;;5091053;28;19920;-69
2023/01/29 00:30:50;;;;;;;;;;;4.70;99.90;;;;;;5092596;28;20032;-69
2023/01/29 00:33:15;;;;;;;;;;;4.70;99.90;;;;;;5093265;28;20030;-69
2023/01/29 00:35:41;;;;;;;;;;;4.70;99.90;;;;;;5094899;28;20437;-69
2023/01/29 00:38:07;;;;;;;;;;;4.70;99.90;;;;;;5095792;28;20371;-70
2023/01/29 00:44:56;;;;;;;;;;;4.70;99.90;;;;;;5103487;27;20345;-69
2023/01/29 00:46:05;;;;;;;;;;;4.70;99.90;;;;;;5091667;28;19927;-69
2023/01/29 00:48:31;;;;;;;;;;;4.60;99.90;;;;;;5082047;28;19923;-70
2023/01/29 00:50:56;;;;;;;;;;;4.70;99.90;;;;;;5098283;28;19915;-68
2023/01/29 00:53:22;;;;;;;;;;;4.70;99.90;;;;;;5092505;28;19913;-69
2023/01/29 00:55:48;;;;;;;;;;;4.70;99.90;;;;;;5092088;28;20322;-69
2023/01/29 00:58:21;;;;;;;;;;;4.70;99.90;;;;;;5098136;28;20011;-68
2023/01/29 01:00:50;;;;;;;;;;;4.70;99.90;;;;;;5082743;28;19912;-69
2023/01/29 01:03:16;;;;;;;;;;;4.60;99.90;;;;;;5090426;28;19916;-68
2023/01/29 01:05:41;;;;;;;;;;;4.60;99.90;;;;;;5103420;28;19919;-69
2023/01/29 01:10:19;;;;;;;;;;;4.60;99.90;;;;;;5098333;28;20314;-69
2023/01/29 01:11:04;;;;;;;;;;;4.60;99.90;;;;;;5088683;28;19920;-69
2023/01/29 01:13:30;;;;;;;;;;;4.60;99.90;;;;;;5090126;28;20286;-69
2023/01/29 01:15:56;;;;;;;;;;;4.60;99.90;;;;;;5098335;28;19911;-71
2023/01/29 01:18:21;;;;;;;;;;;4.60;99.90;;;;;;5096239;28;20271;-70
2023/01/29 01:20:50;;;;;;;;;;;4.70;99.90;;;;;;5098301;28;19919;-69
2023/01/29 01:23:19;;;;;;;;;;;4.60;99.90;;;;;;5100315;28;20010;-69
2023/01/29 01:25:45;;;;;;;;;;;4.70;99.90;;;;;;5084825;28;20015;-68
2023/01/29 01:28:11;;;;;;;;;;;4.70;99.90;;;;;;5099686;28;19973;-68
2023/01/29 01:30:36;;;;;;;;;;;4.70;99.90;;;;;;5098175;28;19952;-69
2023/01/29 01:33:02;;;;;;;;;;;4.60;99.90;;;;;;5097982;28;19912;-68
2023/01/29 01:35:28;;;;;;;;;;;4.60;99.90;;;;;;5080307;28;20508;-69
2023/01/29 01:37:53;;;;;;;;;;;4.60;99.90;;;;;;5096765;28;20003;-68
2023/01/29 01:40:19;;;;;;;;;;;4.60;99.90;;;;;;5090821;28;19942;-69
2023/01/29 01:42:49;;;;;;;;;;;4.60;99.90;;;;;;5091095;28;19938;-69
2023/01/29 01:45:17;;;;;;;;;;;4.60;99.90;;;;;;5092557;28;19997;-70
2023/01/29 01:47:47;;;;;;;;;;;4.60;99.90;;;;;;5099346;28;20271;-69
2023/01/29 01:50:33;;;;;;;;;;;4.60;99.90;;;;;;5089869;28;19957;-69
2023/01/29 01:53:03;;;;;;;;;;;4.50;99.90;;;;;;5093200;28;19912;-69
2023/01/29 01:55:31;;;;;;;;;;;4.60;99.90;;;;;;5092598;28;19963;-69
2023/01/29 01:58:03;;;;;;;;;;;4.50;99.90;;;;;;5093953;28;20042;-70
2023/01/29 02:00:28;;;;;;;;;;;4.50;99.90;;;;;;5088448;28;19955;-69
2023/01/29 02:11:18;;;;;;;;;;;4.50;99.90;;;;;;5084595;28;19919;-64
2023/01/29 02:13:44;;;;;;;;;;;4.50;99.90;;;;;;5090683;28;19916;-69
2023/01/29 02:16:09;;;;;;;;;;;4.60;99.90;;;;;;5090626;28;20007;-69
2023/01/29 02:18:36;;;;;;;;;;;4.60;99.90;;;;;;5095426;28;19955;-69
2023/01/29 02:21:14;;;;;;;;;;;4.50;99.90;;;;;;5100720;28;19935;-71
2023/01/29 02:23:49;;;;;;;;;;;4.60;99.90;;;;;;5092787;28;19935;-69
2023/01/29 02:26:21;;;;;;;;;;;4.50;99.90;;;;;;5093555;28;19912;-70
2023/01/29 02:28:52;;;;;;;;;;;4.50;99.90;;;;;;5088539;28;19970;-69
2023/01/29 02:31:17;;;;;;;;;;;4.50;99.90;;;;;;5093418;28;20279;-69
2023/01/29 02:33:50;;;;;;;;;;;4.50;99.90;;;;;;5091809;28;19912;-69
2023/01/29 02:36:22;;;;;;;;;;;4.50;99.90;;;;;;5094599;28;19912;-69
2023/01/29 02:38:52;;;;;;;;;;;4.50;99.90;;;;;;5091075;28;19999;-69
2023/01/29 02:41:24;;;;;;;;;;;4.50;99.90;;;;;;5095509;28;19920;-68
2023/01/29 02:44:15;;;;;;;;;;;4.50;99.90;;;;;;5089887;28;19919;-69
2023/01/29 02:46:52;;;;;;;;;;;4.50;99.90;;;;;;5089212;28;20287;-70
2023/01/29 02:49:18;;;;;;;;;;;4.50;99.90;;;;;;5094952;28;20011;-69
2023/01/29 02:51:49;;;;;;;;;;;4.50;99.90;;;;;;5096348;28;19962;-69
2023/01/29 02:54:17;;;;;;;;;;;4.50;99.90;;;;;;5094177;28;20371;-68
2023/01/29 02:56:56;;;;;;;;;;;4.50;99.90;;;;;;5092571;28;20425;-70
2023/01/29 02:59:24;;;;;;;;;;;4.60;99.90;;;;;;5087710;28;20337;-70
2023/01/29 03:02:02;;;;;;;;;;;4.50;99.90;;;;;;5088764;28;19912;-69
2023/01/29 03:04:30;;;;;;;;;;;4.50;99.90;;;;;;5091072;28;20311;-69
2023/01/29 03:06:59;;;;;;;;;;;4.50;99.90;;;;;;5081570;28;19916;-69
2023/01/29 03:09:29;;;;;;;;;;;4.50;99.90;;;;;;5089136;28;19920;-69
2023/01/29 03:11:57;;;;;;;;;;;4.50;99.90;;;;;;5095612;28;19917;-69
2023/01/29 03:14:23;;;;;;;;;;;4.50;99.90;;;;;;5086546;28;19912;-69
2023/01/29 03:16:49;;;;;;;;;;;4.50;99.90;;;;;;5097312;28;19919;-70
2023/01/29 03:19:17;;;;;;;;;;;4.50;99.90;;;;;;5089679;28;20429;-70
2023/01/29 03:21:57;;;;;;;;;;;4.50;99.90;;;;;;5107231;28;20386;-69
2023/01/29 03:32:46;;;;;;;;;;;4.50;99.90;;;;;;5099599;28;19934;-69
2023/01/29 03:35:13;;;;;;;;;;;4.60;99.90;;;;;;5099735;28;20416;-69
2023/01/29 03:37:40;;;;;;;;;;;4.60;99.90;;;;;;5109869;28;20367;-69
2023/01/29 03:40:07;;;;;;;;;;;4.60;99.90;;;;;;5105699;28;20010;-70
2023/01/29 03:42:43;;;;;;;;;;;4.60;99.90;;;;;;5098899;28;19919;-70
2023/01/29 03:45:08;;;;;;;;;;;4.60;99.90;;;;;;5102102;28;19911;-70
2023/01/29 03:47:39;;;;;;;;;;;4.70;99.90;;;;;;5090478;28;20029;-68
2023/01/29 03:50:08;;;;;;;;;;;4.60;99.90;;;;;;5098337;28;19912;-68
2023/01/29 03:52:40;;;;;;;;;;;4.60;99.90;;;;;;5105410;28;19911;-70
2023/01/29 03:55:26;;;;;;;;;;;4.60;99.90;;;;;;5106569;28;19947;-69
2023/01/29 03:58:00;;;;;;;;;;;4.60;99.90;;;;;;5099495;28;19918;-68
2023/01/29 04:00:27;;;;;;;;;;;4.60;99.90;;;;;;5093165;28;20531;-68
2023/01/29 04:02:53;;;;;;;;;;;4.50;99.90;;;;;;5104018;28;19912;-69
2023/01/29 04:05:19;;;;;;;;;;;4.50;99.90;;;;;;5107515;28;20283;-69
2023/01/29 04:07:46;;;;;;;;;;;4.50;99.90;;;;;;5101858;28;20376;-69
2023/01/29 04:10:16;;;;;;;;;;;4.50;99.90;;;;;;5105478;28;19912;-70
2023/01/29 04:12:45;;;;;;;;;;;4.60;99.90;;;;;;5100780;28;20371;-68
2023/01/29 04:15:14;;;;;;;;;;;4.50;99.90;;;;;;5096343;28;19918;-68
2023/01/29 04:17:41;;;;;;;;;;;4.60;99.90;;;;;;5106485;28;20382;-70
2023/01/29 04:20:08;;;;;;;;;;;4.50;99.90;;;;;;5096375;28;19912;-70
2023/01/29 04:22:34;;;;;;;;;;;4.50;99.90;;;;;;5101934;28;19957;-70
2023/01/29 04:25:07;;;;;;;;;;;4.50;99.90;;;;;;5100422;28;19922;-69
2023/01/29 04:27:44;;;;;;;;;;;4.50;99.90;;;;;;5098107;28;19926;-70
2023/01/29 04:30:13;;;;;;;;;;;4.50;99.90;;;;;;5100944;28;19937;-68
2023/01/29 04:32:41;;;;;;;;;;;4.50;99.90;;;;;;5100713;28;20416;-69
2023/01/29 04:35:28;;;;;;;;;;;4.50;99.90;;;;;;5097067;28;19918;-69
2023/01/29 04:37:54;;;;;;;;;;;4.60;99.90;;;;;;5087758;28;20275;-69
2023/01/29 04:40:24;;;;;;;;;;;4.60;99.90;;;;;;5103849;28;19969;-70
2023/01/29 04:43:04;;;;;;;;;;;4.60;99.90;;;;;;5113875;22;19966;-67
2023/01/29 04:45:35;;;;;;;;;;;4.60;99.90;;;;;;5040118;28;19999;-69
2023/01/29 04:48:00;;;;;;;;;;;4.70;99.90;;;;;;5058662;28;20372;-68
2023/01/29 04:50:38;;;;;;;;;;;4.70;99.90;;;;;;5040536;28;19913;-67
2023/01/29 04:53:06;;;;;;;;;;;4.70;99.90;;;;;;5050705;28;19913;-66
2023/01/29 04:55:34;;;;;;;;;;;4.70;99.90;;;;;;5044597;28;19913;-67
2023/01/29 04:58:03;;;;;;;;;;;4.70;99.90;;;;;;5042438;28;20356;-66
2023/01/29 05:00:31;;;;;;;;;;;4.60;99.90;;;;;;5049711;28;19913;-67
2023/01/29 05:02:58;;;;;;;;;;;4.70;99.90;;;;;;5051547;28;20050;-67
2023/01/29 05:05:23;;;;;;;;;;;4.70;99.90;;;;;;5038900;28;19956;-68
2023/01/29 05:07:49;;;;;;;;;;;4.70;99.90;;;;;;5050094;28;20329;-67
2023/01/29 05:10:16;;;;;;;;;;;4.70;99.90;;;;;;5048956;28;19924;-67
2023/01/29 05:12:44;;;;;;;;;;;4.70;99.90;;;;;;5053918;28;19913;-67
2023/01/29 05:15:14;;;;;;;;;;;4.70;99.90;;;;;;5050407;28;19921;-65
2023/01/29 05:17:39;;;;;;;;;;;4.70;99.90;;;;;;5054050;28;19935;-67
2023/01/29 05:20:06;;;;;;;;;;;4.60;99.90;;;;;;5055161;28;20365;-67
2023/01/29 05:22:34;;;;;;;;;;;4.70;99.90;;;;;;5049422;28;19913;-68
2023/01/29 05:25:00;;;;;;;;;;;4.60;99.90;;;;;;5052104;28;19948;-68
2023/01/29 05:30:14;;;;;;;;;;;4.70;99.90;;;;;;5050765;28;19934;-68
2023/01/29 05:32:40;;;;;;;;;;;4.60;99.90;;;;;;5031233;28;20336;-68
2023/01/29 05:35:06;;;;;;;;;;;4.70;99.90;;;;;;5050457;28;19913;-67
2023/01/29 05:37:32;;;;;;;;;;;4.70;99.90;;;;;;5030496;28;19912;-68
2023/01/29 05:39:58;;;;;;;;;;;4.70;99.90;;;;;;5050880;28;19917;-68
2023/01/29 05:42:23;;;;;;;;;;;4.70;99.90;;;;;;5049134;28;19964;-68
2023/01/29 05:44:49;;;;;;;;;;;4.70;99.90;;;;;;5050303;28;19927;-68
2023/01/29 05:47:19;;;;;;;;;;;4.70;99.90;;;;;;5032853;28;19960;-68
2023/01/29 05:49:45;;;;;;;;;;;4.70;99.90;;;;;;5031763;28;20341;-67
2023/01/29 05:52:10;;;;;;;;;;;4.80;99.90;;;;;;5051177;28;19913;-67
2023/01/29 05:54:36;;;;;;;;;;;4.80;99.90;;;;;;5050661;28;19939;-67
2023/01/29 05:57:02;;;;;;;;;;;4.80;99.90;;;;;;5048380;28;19913;-67
2023/01/29 05:59:30;;;;;;;;;;;4.80;99.90;;;;;;5048945;28;19917;-67
2023/01/29 06:01:56;;;;;;;;;;;4.80;99.90;;;;;;5049283;28;19963;-67
2023/01/29 06:04:22;;;;;;;;;;;4.80;99.90;;;;;;5045413;28;20388;-68
2023/01/29 06:06:48;;;;;;;;;;;4.80;99.90;;;;;;5031737;28;19912;-67
2023/01/29 06:09:13;;;;;;;;;;;4.80;99.90;;;;;;5045361;28;19952;-66
2023/01/29 06:11:39;;;;;;;;;;;4.80;99.90;;;;;;5048807;28;19955;-66
2023/01/29 06:14:05;;;;;;;;;;;4.80;99.90;;;;;;5049601;28;19913;-67
2023/01/29 06:16:31;;;;;;;;;;;4.80;99.90;;;;;;5048105;28;19919;-66
2023/01/29 06:18:56;;;;;;;;;;;4.80;99.90;;;;;;5049322;28;20361;-67
2023/01/29 06:21:22;;;;;;;;;;;4.80;99.90;;;;;;5045591;28;19996;-67
2023/01/29 06:23:47;;;;;;;;;;;4.80;99.90;;;;;;5048820;28;20019;-67
2023/01/29 06:26:14;;;;;;;;;;;4.90;99.90;;;;;;5048114;28;19912;-67
2023/01/29 06:28:40;;;;;;;;;;;4.80;99.90;;;;;;5046659;28;19936;-67
2023/01/29 06:31:07;;;;;;;;;;;4.80;99.90;;;;;;5049887;28;20368;-67
2023/01/29 06:33:33;;;;;;;;;;;4.80;99.90;;;;;;5047849;28;19919;-67
2023/01/29 06:35:59;;;;;;;;;;;4.80;99.90;;;;;;5049571;28;19916;-68
2023/01/29 06:38:25;;;;;;;;;;;4.80;99.90;;;;;;5047515;28;19913;-68
2023/01/29 06:40:52;;;;;;;;;;;4.80;99.90;;;;;;5049343;28;19920;-68
2023/01/29 06:43:17;;;;;;;;;;;4.80;99.90;;;;;;5044067;28;19924;-67
2023/01/29 06:46:01;;;;;;;;;;;4.90;99.90;;;;;;5040007;28;19912;-68
2023/01/29 06:48:27;;;;;;;;;;;4.90;99.90;;;;;;5039697;28;19947;-67
2023/01/29 06:50:54;;;;;;;;;;;4.90;99.90;;;;;;5047875;28;19924;-67
2023/01/29 06:53:20;;;;;;;;;;;4.90;99.90;;;;;;5038193;28;20299;-68
2023/01/29 06:55:51;;;;;;;;;;;4.90;99.90;;;;;;5049466;28;20030;-67
2023/01/29 06:58:17;;;;;;;;;;;5.00;99.90;;;;;;5044273;28;19955;-67
2023/01/29 07:00:43;;;;;;;;;;;5.00;99.90;;;;;;5052149;28;19980;-67
2023/01/29 07:03:10;;;;;;;;;;;5.00;99.90;;;;;;5053372;28;19916;-67
2023/01/29 07:05:36;;;;;;;;;;;5.00;99.90;;;;;;5049002;28;19952;-68
2023/01/29 07:08:01;;;;;;;;;;;5.00;99.90;;;;;;5047304;28;19920;-67
2023/01/29 07:10:27;;;;;;;;;;;5.00;99.90;;;;;;5051308;28;19913;-68
2023/01/29 07:12:52;;;;;;;;;;;5.00;99.90;;;;;;5052614;28;19912;-68
2023/01/29 07:15:20;;;;;;;;;;;5.10;99.90;;;;;;5051280;28;20252;-68
2023/01/29 07:18:01;;;;;;;;;;;5.00;99.90;;;;;;5049375;28;19913;-68
2023/01/29 07:20:27;;;;;;;;;;;5.10;99.90;;;;;;5051592;28;19966;-68
2023/01/29 07:22:53;;;;;;;;;;;5.10;99.90;;;;;;5052994;28;19952;-68
2023/01/29 07:25:20;;;;;;;;;;;5.10;99.90;;;;;;5051099;28;20364;-67
2023/01/29 07:27:45;;;;;;;;;;;5.10;99.90;;;;;;5049580;28;20022;-67
2023/01/29 07:30:11;;;;;;;;;;;5.10;99.90;;;;;;5046813;28;20015;-68
2023/01/29 07:32:37;;;;;;;;;;;5.10;99.90;;;;;;5052989;28;19957;-68
2023/01/29 07:35:03;;;;;;;;;;;5.10;99.90;;;;;;5047206;28;19944;-67
2023/01/29 07:37:28;;;;;;;;;;;5.10;99.90;;;;;;5051285;28;20378;-66
2023/01/29 07:39:54;;;;;;;;;;;5.10;99.90;;;;;;5053113;28;19920;-66
2023/01/29 07:42:20;;;;;;;;;;;5.20;99.90;;;;;;5047415;28;19966;-67
2023/01/29 07:44:45;;;;;;;;;;;5.20;99.90;;;;;;5034544;28;19921;-67
2023/01/29 07:47:11;;;;;;;;;;;5.20;99.90;;;;;;5050929;28;19920;-67
2023/01/29 07:49:37;;;;;;;;;;;5.20;99.90;;;;;;5052417;28;19920;-67
2023/01/29 07:52:03;;;;;;;;;;;5.20;99.90;;;;;;5052774;28;19920;-68
2023/01/29 07:54:32;;;;;;;;;;;5.20;99.90;;;;;;5050572;28;19913;-67
2023/01/29 07:56:57;;;;;;;;;;;5.20;99.90;;;;;;5052528;28;19999;-66
2023/01/29 07:59:23;;;;;;;;;;;5.30;99.90;;;;;;5049689;28;20331;-67
2023/01/29 08:01:48;;;;;;;;;;;5.30;99.90;;;;;;5051695;28;19917;-67
2023/01/29 08:04:14;;;;;;;;;;;5.30;99.90;;;;;;5050638;28;20039;-66
2023/01/29 08:06:41;;;;;;;;;;;5.40;99.90;;;;;;5034038;28;20019;-67
2023/01/29 08:09:07;;;;;;;;;;;5.40;99.90;;;;;;5034448;28;19991;-67
2023/01/29 08:11:33;;;;;;;;;;;5.40;99.90;;;;;;5046980;28;19919;-67
2023/01/29 08:13:58;;;;;;;;;;;5.40;99.90;;;;;;5045281;28;19917;-67
2023/01/29 08:16:24;;;;;;;;;;;5.40;99.90;;;;;;5049559;28;19936;-67
2023/01/29 08:18:49;;;;;;;;;;;5.40;99.90;;;;;;5052114;28;19951;-67
2023/01/29 08:21:15;;;;;;;;;;;5.40;99.90;;;;;;5050200;28;19919;-67
2023/01/29 08:23:41;;;;;;;;;;;5.40;99.90;;;;;;5051942;28;19913;-67
2023/01/29 08:26:06;;;;;;;;;;;5.40;99.90;;;;;;5051737;28;19917;-69
2023/01/29 08:28:32;;;;;;;;;;;5.50;99.90;;;;;;5049696;28;19921;-68
2023/01/29 08:30:58;;;;;;;;;;;5.50;99.90;;;;;;5051825;28;20362;-67
2023/01/29 08:33:27;;;;;;;;;;;5.60;99.90;;;;;;5051532;28;19916;-68
2023/01/29 08:35:53;;;;;;;;;;;5.60;99.90;;;;;;5046724;28;20335;-69
2023/01/29 08:38:19;;;;;;;;;;;5.60;99.90;;;;;;5046205;28;19913;-68
2023/01/29 08:40:44;;;;;;;;;;;5.70;99.90;;;;;;5050650;28;20063;-67
2023/01/29 08:43:11;;;;;;;;;;;5.70;99.90;;;;;;5050435;28;19917;-68
2023/01/29 08:45:38;;;;;;;;;;;5.70;99.90;;;;;;5051616;28;19967;-67
2023/01/29 08:48:07;;;;;;;;;;;5.70;99.90;;;;;;5050539;28;19921;-67
2023/01/29 08:50:33;;;;;;;;;;;5.70;99.90;;;;;;5028153;28;19913;-67
2023/01/29 08:53:00;;;;;;;;;;;5.80;99.90;;;;;;5051210;28;20078;-67
2023/01/29 08:55:26;;;;;;;;;;;5.80;99.90;;;;;;5049267;28;19966;-67
2023/01/29 08:57:52;;;;;;;;;;;5.80;99.90;;;;;;5047109;28;19916;-68
2023/01/29 09:00:18;;;;;;;;;;;5.80;99.90;;;;;;5047736;28;19939;-67
2023/01/29 09:02:43;;;;;;;;;;;5.80;99.90;;;;;;5051323;28;19920;-67
2023/01/29 09:05:09;;;;;;;;;;;5.80;99.90;;;;;;5047856;28;19913;-67
2023/01/29 09:07:34;;;;;;;;;;;5.90;99.90;;;;;;5048610;28;19921;-67
2023/01/29 09:10:00;;;;;;;;;;;5.90;99.90;;;;;;5042222;28;19913;-63
2023/01/29 09:12:26;;;;;;;;;;;6.00;99.90;;;;;;5047981;28;19912;-63
2023/01/29 09:14:52;;;;;;;;;;;6.10;99.90;;;;;;5046202;28;19951;-63
2023/01/29 09:17:17;;;;;;;;;;;6.20;99.90;;;;;;5049355;28;20398;-63
2023/01/29 09:19:43;;;;;;;;;;;6.20;99.90;;;;;;5047068;28;19917;-63
2023/01/29 09:22:09;;;;;;;;;;;6.30;99.90;;;;;;5050683;28;19916;-65
2023/01/29 09:24:34;;;;;;;;;;;6.30;99.90;;;;;;5048798;28;20007;-64
2023/01/29 09:27:00;;;;;;;;;;;6.30;99.90;;;;;;5050256;28;19913;-64
2023/01/29 09:29:26;;;;;;;;;;;6.40;99.90;;;;;;5048881;28;20009;-63
2023/01/29 09:31:51;;;;;;;;;;;6.50;99.90;;;;;;5050719;28;19913;-64
2023/01/29 09:34:17;;;;;;;;;;;6.50;99.90;;;;;;5048340;28;19917;-63
2023/01/29 09:36:42;;;;;;;;;;;6.50;99.90;;;;;;5048316;28;20272;-64
2023/01/29 09:39:08;;;;;;;;;;;6.50;99.90;;;;;;5049959;28;20288;-64
2023/01/29 09:41:50;;;;;;;;;;;6.60;99.90;;;;;;5048413;28;19935;-64
2023/01/29 09:44:34;;;;;;;;;;;6.60;99.90;;;;;;5047695;28;19974;-64
2023/01/29 09:47:03;;;;;;;;;;;6.70;99.90;;;;;;5046520;28;20043;-65
2023/01/29 09:49:31;;;;;;;;;;;6.70;99.90;;;;;;5046474;28;20004;-64
2023/01/29 09:52:03;;;;;;;;;;;6.70;99.90;;;;;;5050097;28;19936;-64
2023/01/29 09:54:31;;;;;;;;;;;6.70;99.90;;;;;;5047794;28;20070;-64
2023/01/29 09:56:57;;;;;;;;;;;6.80;99.90;;;;;;5049911;28;19913;-64
2023/01/29 09:59:25;;;;;;;;;;;6.80;99.90;;;;;;5048333;28;20341;-65
2023/01/29 10:02:15;;;;;;;;;;;6.90;99.90;;;;;;5047163;28;20003;-65
2023/01/29 10:05:06;;;;;;;;;;;6.90;99.90;;;;;;5042759;28;19966;-65
2023/01/29 10:07:47;;;;;;;;;;;6.90;99.90;;;;;;5042186;28;19924;-65
2023/01/29 10:10:24;;;;;;;;;;;7.00;99.90;;;;;;5047216;28;20415;-63
2023/01/29 10:12:53;;;;;;;;;;;6.90;99.90;;;;;;5044253;28;20360;-64
2023/01/29 10:15:23;;;;;;;;;;;7.00;99.90;;;;;;5048125;28;19916;-63
2023/01/29 10:17:53;;;;;;;;;;;7.00;99.90;;;;;;5054019;28;20055;-64
2023/01/29 10:20:31;;;;;;;;;;;7.00;99.90;;;;;;5046535;28;19913;-65
2023/01/29 10:23:15;;;;;;;;;;;7.00;99.90;;;;;;5049856;28;19995;-66
2023/01/29 10:25:41;;;;;;;;;;;7.10;99.90;;;;;;5042495;28;19913;-65
2023/01/29 10:28:17;;;;;;;;;;;7.10;99.90;;;;;;5048090;28;19920;-64
2023/01/29 10:30:50;;;;;;;;;;;6.90;99.90;;;;;;5042128;28;19913;-64
2023/01/29 10:33:17;;;;;;;;;;;7.10;99.90;;;;;;5057960;28;19919;-64
2023/01/29 10:35:45;;;;;;;;;;;7.20;99.90;;;;;;5030887;28;19913;-66
2023/01/29 10:38:23;;;;;;;;;;;7.10;99.90;;;;;;5043952;28;20355;-67
2023/01/29 10:40:58;;;;;;;;;;;7.10;99.90;;;;;;5053998;28;20007;-66
2023/01/29 10:43:31;;;;;;;;;;;7.20;99.90;;;;;;5044854;28;19924;-68
2023/01/29 10:46:03;;;;;;;;;;;7.20;99.90;;;;;;5048833;28;19913;-68
2023/01/29 10:48:34;;;;;;;;;;;7.30;99.90;;;;;;5050142;28;20125;-67
2023/01/29 10:50:59;;;;;;;;;;;7.40;99.90;;;;;;5049339;28;19923;-68
2023/01/29 10:53:33;;;;;;;;;;;7.50;99.90;;;;;;5045961;28;20023;-68
2023/01/29 10:56:16;;;;;;;;;;;7.50;99.90;;;;;;5045993;28;19917;-68
2023/01/29 10:58:46;;;;;;;;;;;7.50;99.90;;;;;;5040664;28;19913;-67
2023/01/29 11:01:12;;;;;;;;;;;7.40;99.90;;;;;;5049588;28;20434;-68
2023/01/29 11:03:37;;;;;;;;;;;7.30;99.90;;;;;;5049365;28;19920;-67
2023/01/29 11:06:10;;;;;;;;;;;7.40;99.90;;;;;;5046078;28;20268;-67
2023/01/29 11:08:42;;;;;;;;;;;7.50;99.90;;;;;;5047037;28;20394;-69
2023/01/29 11:11:11;;;;;;;;;;;7.80;99.90;;;;;;5048704;28;19913;-67
2023/01/29 11:13:39;;;;;;;;;;;8.00;99.90;;;;;;5048718;28;19913;-67
2023/01/29 11:16:06;;;;;;;;;;;8.00;99.90;;;;;;5048799;28;19956;-67
2023/01/29 11:18:48;;;;;;;;;;;8.10;99.90;;;;;;5047584;28;19912;-67
2023/01/29 11:21:14;;;;;;;;;;;8.10;99.90;;;;;;5047454;28;19912;-67
2023/01/29 11:23:40;;;;;;;;;;;8.20;99.90;;;;;;5049305;28;19913;-68
2023/01/29 11:26:08;;;;;;;;;;;8.10;99.90;;;;;;5048707;28;19920;-67
2023/01/29 11:28:36;;;;;;;;;;;8.10;99.90;;;;;;5046593;28;19921;-66
2023/01/29 11:31:02;;;;;;;;;;;8.10;99.90;;;;;;5049545;28;19988;-67
2023/01/29 11:33:29;;;;;;;;;;;8.20;99.90;;;;;;5047364;28;20390;-68
2023/01/29 11:35:56;;;;;;;;;;;8.20;99.90;;;;;;5048402;28;20277;-68
2023/01/29 11:38:25;;;;;;;;;;;8.20;99.90;;;;;;5046154;28;19912;-67
2023/01/29 11:40:51;;;;;;;;;;;8.10;99.90;;;;;;5048530;28;19913;-67
2023/01/29 11:43:20;;;;;;;;;;;8.30;99.90;;;;;;5045569;28;19917;-68
2023/01/29 11:45:46;;;;;;;;;;;8.40;99.90;;;;;;5048934;28;19917;-67
2023/01/29 11:48:19;;;;;;;;;;;8.50;99.90;;;;;;5050298;28;19946;-68
2023/01/29 11:50:53;;;;;;;;;;;8.50;99.90;;;;;;5051172;28;19920;-67
2023/01/29 11:53:27;;;;;;;;;;;8.40;99.90;;;;;;5029671;28;19913;-68
2023/01/29 11:55:54;;;;;;;;;;;8.30;99.90;;;;;;5052342;28;19912;-68
2023/01/29 11:58:25;;;;;;;;;;;8.40;99.90;;;;;;5048998;28;19959;-68
2023/01/29 12:00:51;;;;;;;;;;;8.40;99.90;;;;;;5052409;28;19920;-69
2023/01/29 12:03:16;;;;;;;;;;;8.50;99.90;;;;;;5050833;28;19913;-68
2023/01/29 12:05:52;;;;;;;;;;;8.60;99.90;;;;;;5051693;28;20001;-68
2023/01/29 12:08:18;;;;;;;;;;;8.50;99.90;;;;;;5039914;28;19927;-67
2023/01/29 12:10:43;;;;;;;;;;;8.70;99.90;;;;;;5052453;28;20373;-68
2023/01/29 12:13:14;;;;;;;;;;;8.90;99.90;;;;;;5050138;28;20022;-69
2023/01/29 12:15:40;;;;;;;;;;;9.00;99.90;;;;;;5039221;28;20016;-68
2023/01/29 12:18:18;;;;;;;;;;;8.90;99.90;;;;;;5046826;28;19919;-67
2023/01/29 12:20:47;;;;;;;;;;;8.80;99.90;;;;;;5067581;28;19917;-68
2023/01/29 12:23:31;;;;;;;;;;;8.80;99.90;;;;;;5050403;28;19912;-67
2023/01/29 12:26:23;;;;;;;;;;;8.90;99.90;;;;;;5045308;28;20367;-68
2023/01/29 12:28:48;;;;;;;;;;;8.90;99.90;;;;;;5046978;28;19921;-69
2023/01/29 12:31:24;;;;;;;;;;;8.70;99.90;;;;;;5050259;28;19913;-68
2023/01/29 12:33:57;;;;;;;;;;;8.60;99.90;;;;;;5052063;28;19913;-68
2023/01/29 12:36:26;;;;;;;;;;;8.60;99.90;;;;;;5041378;28;19913;-68
2023/01/29 12:38:53;;;;;;;;;;;8.50;99.90;;;;;;5051079;28;19913;-68
2023/01/29 12:41:51;;;;;;;;;;;8.30;99.90;;;;;;5049424;28;20380;-66
2023/01/29 12:44:41;;;;;;;;;;;8.40;99.90;;;;;;4995010;28;19944;-68
2023/01/29 12:47:09;;;;;;;;;;;8.50;99.90;;;;;;5050206;28;19912;-68
2023/01/29 12:49:36;;;;;;;;;;;8.50;99.90;;;;;;5050069;28;19913;-68
2023/01/29 12:52:31;;;;;;;;;;;8.50;99.90;;;;;;5051523;28;19913;-67
2023/01/29 12:54:59;;;;;;;;;;;8.50;99.90;;;;;;5031694;28;19913;-68
2023/01/29 12:57:48;;;;;;;;;;;8.60;99.90;;;;;;5039687;28;19920;-68
2023/01/29 13:00:19;;;;;;;;;;;8.40;99.90;;;;;;5039613;28;20323;-67
2023/01/29 13:02:53;;;;;;;;;;;8.40;99.90;;;;;;5049667;28;19921;-68
2023/01/29 13:05:38;;;;;;;;;;;8.50;99.90;;;;;;5031812;28;19917;-68
2023/01/29 13:08:07;;;;;;;;;;;8.40;99.90;;;;;;5051236;28;19921;-68
2023/01/29 13:10:35;;;;;;;;;;;8.30;99.90;;;;;;5064668;28;20372;-68
2023/01/29 13:13:10;;;;;;;;;;;8.30;99.90;;;;;;5050054;28;19913;-68
2023/01/29 13:15:37;;;;;;;;;;;8.30;99.90;;;;;;5023563;28;19913;-69
2023/01/29 13:18:17;;;;;;;;;;;8.40;99.90;;;;;;5051077;28;20404;-69
2023/01/29 13:20:43;;;;;;;;;;;8.30;99.90;;;;;;5026016;28;20288;-67
2023/01/29 13:23:30;;;;;;;;;;;8.30;99.90;;;;;;5049459;28;19913;-68
2023/01/29 13:26:04;;;;;;;;;;;8.30;99.90;;;;;;5050542;28;19952;-69
2023/01/29 13:28:31;;;;;;;;;;;8.50;99.90;;;;;;5048406;28;20398;-68
2023/01/29 13:31:11;;;;;;;;;;;8.50;99.90;;;;;;5050884;28;19951;-69
2023/01/29 13:33:37;;;;;;;;;;;8.60;99.90;;;;;;5048861;28;20316;-68
2023/01/29 13:36:03;;;;;;;;;;;8.60;99.90;;;;;;5050477;28;19939;-68
2023/01/29 13:38:31;;;;;;;;;;;8.80;99.90;;;;;;5048121;28;19974;-68
2023/01/29 13:41:04;;;;;;;;;;;8.80;99.90;;;;;;5050521;28;19913;-69
2023/01/29 13:43:36;;;;;;;;;;;8.80;99.90;;;;;;5047381;28;19963;-69
2023/01/29 13:46:11;;;;;;;;;;;8.90;99.90;;;;;;5050189;28;19985;-68
2023/01/29 13:48:40;;;;;;;;;;;8.90;99.90;;;;;;5046030;28;19927;-68
2023/01/29 13:51:14;;;;;;;;;;;9.10;99.90;;;;;;5042949;28;20000;-68
2023/01/29 13:53:40;;;;;;;;;;;9.10;99.90;;;;;;5046971;28;19920;-68
2023/01/29 13:56:24;;;;;;;;;;;9.30;99.90;;;;;;5050083;28;19920;-67
2023/01/29 13:58:53;;;;;;;;;;;9.50;99.90;;;;;;5037803;28;19914;-68
2023/01/29 14:01:39;;;;;;;;;;;9.70;99.90;;;;;;5046319;28;20504;-67
2023/01/29 14:04:21;;;;;;;;;;;9.80;99.90;;;;;;5043798;28;19920;-68
2023/01/29 14:06:48;;;;;;;;;;;9.80;99.90;;;;;;5047783;28;19920;-67
2023/01/29 14:09:32;;;;;;;;;;;9.80;99.90;;;;;;5046638;28;19925;-67
2023/01/29 14:11:58;;;;;;;;;;;9.80;99.90;;;;;;5048288;28;19958;-68
2023/01/29 14:14:42;;;;;;;;;;;9.40;99.90;;;;;;5046965;28;20316;-67
2023/01/29 14:17:08;;;;;;;;;;;9.40;99.90;;;;;;5043806;28;19928;-68
2023/01/29 14:19:33;;;;;;;;;;;9.50;99.90;;;;;;5045698;28;19912;-68
2023/01/29 14:21:59;;;;;;;;;;;9.50;99.90;;;;;;5047121;28;19934;-67
2023/01/29 14:24:29;;;;;;;;;;;9.70;99.90;;;;;;5045566;28;20368;-67
2023/01/29 14:26:54;;;;;;;;;;;9.90;99.90;;;;;;5041759;28;19920;-67
2023/01/29 14:29:26;;;;;;;;;;;9.70;99.90;;;;;;5046583;28;21440;-68
2023/01/29 14:31:54;;;;;;;;;;;9.40;99.90;;;;;;5044788;28;19912;-67
2023/01/29 14:34:19;;;;;;;;;;;9.40;99.90;;;;;;5045848;28;20292;-68
2023/01/29 14:36:46;;;;;;;;;;;9.30;99.90;;;;;;5048946;28;19967;-76
2023/01/29 14:39:19;;;;;;;;;;;9.20;99.90;;;;;;5043524;28;19913;-67
2023/01/29 14:41:45;;;;;;;;;;;9.20;99.90;;;;;;5040090;28;19913;-68
2023/01/29 14:44:29;;;;;;;;;;;9.20;99.90;;;;;;5048824;28;19975;-68
2023/01/29 14:46:55;;;;;;;;;;;9.30;99.90;;;;;;5038111;28;20300;-72
2023/01/29 14:49:39;;;;;;;;;;;9.10;99.90;;;;;;5046263;28;19974;-67
2023/01/29 14:52:07;;;;;;;;;;;9.20;99.90;;;;;;5039425;28;19913;-70
2023/01/29 14:54:37;;;;;;;;;;;9.20;99.90;;;;;;5046859;28;19923;-69
2023/01/29 14:57:04;;;;;;;;;;;9.20;99.90;;;;;;5053417;28;19912;-67
2023/01/29 14:59:36;;;;;;;;;;;9.30;99.90;;;;;;5047637;28;19916;-66
2023/01/29 15:02:23;;;;;;;;;;;9.30;99.90;;;;;;5049364;28;19935;-65
2023/01/29 15:04:51;;;;;;;;;;;9.40;99.90;;;;;;5048004;28;19925;-68
2023/01/29 15:07:24;;;;;;;;;;;10.10;99.90;;;;;;5045478;28;19920;-68